createdAt,value
2023-04-15T00:00:34.178Z,64.72
2023-04-15T00:03:16.142Z,64.66
2023-04-15T00:05:45.964Z,64.62
2023-04-15T00:08:16.756Z,64.56
2023-04-15T00:10:46.842Z,64.35
2023-04-15T00:13:17.194Z,64.72
2023-04-15T00:15:49.266Z,65.02
2023-04-15T00:18:18.722Z,65.03
2023-04-15T00:20:48.894Z,64.62
2023-04-15T00:23:21.817Z,64.04
2023-04-15T00:25:53.939Z,63.62
2023-04-15T00:28:24.890Z,63.89
2023-04-15T00:30:58.385Z,63.84
2023-04-15T00:36:41.487Z,64.11
2023-04-15T00:39:11.280Z,64.17
2023-04-15T00:41:47.781Z,64.32
2023-04-15T00:44:19.753Z,64.28
2023-04-15T00:46:52.213Z,64.55
2023-04-15T00:49:21.708Z,65.20
2023-04-15T00:51:51.973Z,65.51
2023-04-15T00:54:21.799Z,65.24
2023-04-15T00:56:52.670Z,65.78
2023-04-15T00:59:22.928Z,66.19
2023-04-15T01:01:53.538Z,65.94
2023-04-15T01:04:23.138Z,66.10
2023-04-15T01:06:52.853Z,66.16
2023-04-15T01:09:22.365Z,66.36
2023-04-15T01:11:53.969Z,66.38
2023-04-15T01:14:24.139Z,66.58
2023-04-15T01:16:53.681Z,66.61
2023-04-15T01:19:23.031Z,66.35
2023-04-15T01:21:52.882Z,66.53
2023-04-15T01:24:24.619Z,66.52
2023-04-15T01:26:54.328Z,66.67
2023-04-15T01:29:24.317Z,66.57
2023-04-15T01:31:56.969Z,66.56
2023-04-15T01:34:28.877Z,66.69
2023-04-15T01:37:00.749Z,66.61
2023-04-15T01:39:31.823Z,66.42
2023-04-15T01:42:02.864Z,66.24
2023-04-15T01:44:32.723Z,65.95
2023-04-15T01:47:03.260Z,66.35
2023-04-15T01:49:34.013Z,66.07
2023-04-15T01:52:04.319Z,65.93
2023-04-15T01:54:33.686Z,66.20
2023-04-15T01:57:03.855Z,66.19
2023-04-15T01:59:33.986Z,66.18
2023-04-15T02:02:03.735Z,65.92
2023-04-15T02:04:35.071Z,65.63
2023-04-15T02:07:07.286Z,65.86
2023-04-15T02:09:38.846Z,66.02
2023-04-15T02:12:10.368Z,66.69
2023-04-15T02:14:40.872Z,67.44
2023-04-15T02:17:12.548Z,67.40
2023-04-15T02:19:44.332Z,67.25
2023-04-15T02:22:19.098Z,67.50
2023-04-15T02:24:49.582Z,67.32
2023-04-15T02:27:22.865Z,66.93
2023-04-15T02:29:52.922Z,66.81
2023-04-15T02:32:24.683Z,66.33
2023-04-15T02:35:07.024Z,66.31
2023-04-15T02:37:43.826Z,65.73
2023-04-15T02:40:15.031Z,65.83
2023-04-15T02:42:44.903Z,65.89
2023-04-15T02:45:16.307Z,65.64
2023-04-15T02:47:47.554Z,65.80
2023-04-15T02:50:17.904Z,66.03
2023-04-15T02:52:47.898Z,66.30
2023-04-15T02:55:18.283Z,66.14
2023-04-15T02:57:48.603Z,66.30
2023-04-15T03:00:19.406Z,66.55
2023-04-15T03:02:52.507Z,66.82
2023-04-15T03:05:25.927Z,67.01
2023-04-15T03:07:55.641Z,67.14
2023-04-15T03:10:25.640Z,67.25
2023-04-15T03:12:54.965Z,67.33
2023-04-15T03:15:24.365Z,67.34
2023-04-15T03:17:54.988Z,67.51
2023-04-15T03:20:24.953Z,67.54
2023-04-15T03:23:01.416Z,67.70
2023-04-15T03:25:32.336Z,68.00
2023-04-15T03:28:02.545Z,68.51
2023-04-15T03:30:32.002Z,68.96
2023-04-15T03:33:01.595Z,69.52
2023-04-15T03:35:31.555Z,69.25
2023-04-15T03:38:01.370Z,69.49
2023-04-15T03:40:30.733Z,69.94
2023-04-15T03:43:00.787Z,69.96
2023-04-15T03:45:33.296Z,69.90
2023-04-15T03:48:16.105Z,69.91
2023-04-15T03:50:48.532Z,69.57
2023-04-15T03:53:18.025Z,69.59
2023-04-15T03:55:49.155Z,69.69
2023-04-15T03:58:21.632Z,69.77
2023-04-15T04:00:54.952Z,69.84
2023-04-15T04:03:26.559Z,69.85
2023-04-15T04:05:56.382Z,69.88
2023-04-15T04:08:25.811Z,70.30
2023-04-15T04:10:55.155Z,69.96
2023-04-15T04:13:24.588Z,69.73
2023-04-15T04:15:54.686Z,69.61
2023-04-15T04:18:24.071Z,69.72
2023-04-15T04:20:53.506Z,69.52
2023-04-15T04:23:23.054Z,69.57
2023-04-15T04:25:53.421Z,69.61
2023-04-15T04:28:23.213Z,69.71
2023-04-15T04:30:52.632Z,69.81
2023-04-15T04:33:22.276Z,69.71
2023-04-15T04:35:51.710Z,69.77
2023-04-15T04:38:21.171Z,69.42
2023-04-15T04:40:50.610Z,70.15
2023-04-15T04:43:22.722Z,70.82
2023-04-15T04:45:52.304Z,70.99
2023-04-15T04:48:21.695Z,70.45
2023-04-15T04:50:52.352Z,70.77
2023-04-15T04:53:21.772Z,70.40
2023-04-15T04:55:51.259Z,70.42
2023-04-15T04:58:20.788Z,70.14
2023-04-15T05:00:50.275Z,70.20
2023-04-15T05:03:20.014Z,70.00
2023-04-15T05:05:49.634Z,69.67
2023-04-15T05:08:19.025Z,69.76
2023-04-15T05:10:48.821Z,69.50
2023-04-15T05:13:18.120Z,68.50
2023-04-15T05:15:47.526Z,68.97
2023-04-15T05:18:16.946Z,68.73
2023-04-15T05:20:50.287Z,68.97
2023-04-15T05:23:19.700Z,68.63
2023-04-15T05:25:49.150Z,68.50
2023-04-15T05:28:18.430Z,68.39
2023-04-15T05:30:47.743Z,68.53
2023-04-15T05:33:17.682Z,68.39
2023-04-15T05:35:47.059Z,68.14
2023-04-15T05:38:16.509Z,68.77
2023-04-15T05:40:46.476Z,68.58
2023-04-15T05:43:15.829Z,68.78
2023-04-15T05:45:45.192Z,68.94
2023-04-15T05:48:16.020Z,68.79
2023-04-15T05:50:45.680Z,68.61
2023-04-15T05:53:15.329Z,69.03
2023-04-15T05:55:44.709Z,69.04
2023-04-15T05:58:14.173Z,69.31
2023-04-15T06:00:44.969Z,68.53
2023-04-15T06:03:16.570Z,69.49
2023-04-15T06:05:45.977Z,69.02
2023-04-15T06:08:15.439Z,68.95
2023-04-15T06:10:46.303Z,67.91
2023-04-15T06:13:17.757Z,67.98
2023-04-15T06:15:47.660Z,68.37
2023-04-15T06:18:16.943Z,67.87
2023-04-15T06:20:48.680Z,67.72
2023-04-15T06:23:18.372Z,67.88
2023-04-15T06:25:48.123Z,67.78
2023-04-15T06:28:17.670Z,68.29
2023-04-15T06:30:47.026Z,68.86
2023-04-15T06:33:16.758Z,68.81
2023-04-15T06:35:46.361Z,68.62
2023-04-15T06:38:16.011Z,68.26
2023-04-15T06:40:46.724Z,68.34
2023-04-15T06:43:18.607Z,68.35
2023-04-15T06:45:48.048Z,68.41
2023-04-15T06:48:18.238Z,68.33
2023-04-15T06:50:47.947Z,68.60
2023-04-15T06:53:17.494Z,68.99
2023-04-15T06:55:47.418Z,69.31
2023-04-15T06:58:17.495Z,69.54
2023-04-15T07:00:48.144Z,69.90
2023-04-15T07:03:18.100Z,69.62
2023-04-15T07:05:47.562Z,68.88
2023-04-15T07:08:17.301Z,68.20
2023-04-15T07:10:47.715Z,67.90
2023-04-15T07:13:17.624Z,68.10
2023-04-15T07:15:47.035Z,67.68
2023-04-15T07:18:16.495Z,66.65
2023-04-15T07:20:45.897Z,66.84
2023-04-15T07:23:15.438Z,67.14
2023-04-15T07:25:44.873Z,66.47
2023-04-15T07:28:14.230Z,66.81
2023-04-15T07:30:43.584Z,66.13
2023-04-15T07:33:13.214Z,65.96
2023-04-15T07:35:42.667Z,65.66
2023-04-15T07:38:15.034Z,65.00
2023-04-15T07:40:46.101Z,64.53
2023-04-15T07:43:18.162Z,64.71
2023-04-15T07:45:49.218Z,64.89
2023-04-15T07:48:23.670Z,65.03
2023-04-15T07:50:54.314Z,64.39
2023-04-15T07:53:25.308Z,63.71
2023-04-15T07:55:54.644Z,63.44
2023-04-15T07:58:25.330Z,63.64
2023-04-15T08:00:57.286Z,64.34
2023-04-15T08:03:27.145Z,61.98
2023-04-15T08:05:56.826Z,62.90
2023-04-15T08:08:27.687Z,62.77
2023-04-15T08:10:59.001Z,62.65
2023-04-15T08:13:28.404Z,63.07
2023-04-15T08:16:19.998Z,62.49
2023-04-15T08:18:51.118Z,61.25
2023-04-15T08:21:21.032Z,60.96
2023-04-15T08:23:53.866Z,61.66
2023-04-15T08:26:25.575Z,61.45
2023-04-15T08:29:30.469Z,61.49
2023-04-15T08:32:06.633Z,58.90
2023-04-15T08:34:46.888Z,59.18
2023-04-15T08:37:18.768Z,57.43
2023-04-15T08:39:49.688Z,57.41
2023-04-15T08:42:32.112Z,57.42
2023-04-15T08:45:16.078Z,57.27
2023-04-15T08:47:58.208Z,55.05
2023-04-15T08:50:34.162Z,54.37
2023-04-15T08:53:06.933Z,53.58
2023-04-15T08:55:40.210Z,54.45
2023-04-15T08:58:11.631Z,52.45
2023-04-15T09:00:47.356Z,51.34
2023-04-15T09:03:22.073Z,50.61
2023-04-15T09:05:53.256Z,51.07
2023-04-15T09:08:22.943Z,49.99
2023-04-15T09:10:52.750Z,49.95
2023-04-15T09:13:22.408Z,50.70
2023-04-15T09:15:53.959Z,50.14
2023-04-15T09:18:30.230Z,51.77
2023-04-15T09:21:19.404Z,50.17
2023-04-15T09:24:02.249Z,48.11
2023-04-15T09:26:40.495Z,48.60
2023-04-15T09:29:15.614Z,47.41
2023-04-15T09:31:45.118Z,46.99
2023-04-15T09:34:16.979Z,45.69
2023-04-15T09:36:49.213Z,45.41
2023-04-15T09:39:21.479Z,44.06
2023-04-15T09:42:11.567Z,43.62
2023-04-15T09:44:40.990Z,42.72
2023-04-15T09:47:33.260Z,41.24
2023-04-15T09:50:03.754Z,40.73
2023-04-15T09:52:33.746Z,41.53
2023-04-15T09:55:03.148Z,41.20
2023-04-15T09:57:39.709Z,38.78
2023-04-15T10:00:12.669Z,39.62
2023-04-15T10:02:49.993Z,38.78
2023-04-15T10:05:24.350Z,39.49
2023-04-15T10:07:54.595Z,39.88
2023-04-15T10:10:26.158Z,38.95
2023-04-15T10:12:58.461Z,37.83
2023-04-15T10:15:35.177Z,36.78
2023-04-15T10:18:10.356Z,36.37
2023-04-15T10:20:43.467Z,37.44
2023-04-15T10:23:14.370Z,35.77
2023-04-15T10:25:46.889Z,36.68
2023-04-15T10:28:18.339Z,35.88
2023-04-15T10:30:50.305Z,37.54
2023-04-15T10:33:25.370Z,37.52
2023-04-15T10:36:27.831Z,35.43
2023-04-15T10:39:02.394Z,35.41
2023-04-15T10:41:35.541Z,34.37
2023-04-15T10:44:06.004Z,34.76
2023-04-15T10:46:52.906Z,34.41
2023-04-15T10:49:27.103Z,33.44
2023-04-15T10:52:04.708Z,32.71
2023-04-15T10:54:36.560Z,32.97
2023-04-15T10:57:17.507Z,32.08
2023-04-15T11:00:03.533Z,31.73
2023-04-15T11:02:45.735Z,33.14
2023-04-15T11:05:20.099Z,34.02
2023-04-15T11:07:57.777Z,33.86
2023-04-15T11:10:34.089Z,33.21
2023-04-15T11:13:11.974Z,33.37
2023-04-15T11:15:47.782Z,30.82
2023-04-15T11:18:23.318Z,30.86
2023-04-15T11:21:01.379Z,31.58
2023-04-15T11:23:48.821Z,32.67
2023-04-15T11:26:18.904Z,32.23
2023-04-15T11:28:53.281Z,31.72
2023-04-15T11:31:34.036Z,32.68
2023-04-15T11:34:08.457Z,31.90
2023-04-15T11:36:43.973Z,31.68
2023-04-15T11:39:15.475Z,31.18
2023-04-15T11:41:46.232Z,29.33
2023-04-15T11:44:19.405Z,27.97
2023-04-15T11:46:50.027Z,26.88
2023-04-15T11:49:35.461Z,28.14
2023-04-15T11:52:11.748Z,27.42
2023-04-15T11:54:41.593Z,27.32
2023-04-15T11:57:11.847Z,27.15
2023-04-15T11:59:46.190Z,26.31
2023-04-15T12:02:16.894Z,28.64
2023-04-15T12:04:49.673Z,27.39
2023-04-15T12:07:22.161Z,27.01
2023-04-15T12:09:59.010Z,27.85
2023-04-15T12:12:29.779Z,27.39
2023-04-15T12:14:59.629Z,27.52
2023-04-15T12:17:29.106Z,26.36
2023-04-15T12:19:58.651Z,26.87
2023-04-15T12:22:41.010Z,25.54
2023-04-15T12:25:16.430Z,26.23
2023-04-15T12:27:54.015Z,26.70
2023-04-15T12:30:25.507Z,27.29
2023-04-15T12:32:57.401Z,28.39
2023-04-15T12:35:31.305Z,28.60
2023-04-15T12:38:00.995Z,27.69
2023-04-15T12:40:30.491Z,27.22
2023-04-15T12:42:59.928Z,26.07
2023-04-15T12:45:31.422Z,25.04
2023-04-15T12:48:01.328Z,25.63
2023-04-15T12:50:32.298Z,26.83
2023-04-15T12:53:06.364Z,26.91
2023-04-15T12:55:35.892Z,26.56
2023-04-15T12:58:05.944Z,26.02
2023-04-15T13:00:39.255Z,24.82
2023-04-15T13:03:09.980Z,24.81
2023-04-15T13:05:40.139Z,24.19
2023-04-15T13:08:09.709Z,23.21
2023-04-15T13:10:39.277Z,22.98
2023-04-15T13:13:08.872Z,22.89
2023-04-15T13:15:42.794Z,23.24
2023-04-15T13:18:12.344Z,22.90
2023-04-15T13:20:44.069Z,21.34
2023-04-15T13:23:13.767Z,22.25
2023-04-15T13:25:43.805Z,21.49
2023-04-15T13:28:16.409Z,20.91
2023-04-15T13:30:52.051Z,20.80
2023-04-15T13:33:26.910Z,20.41
2023-04-15T13:36:44.579Z,22.17
2023-04-15T13:39:20.897Z,20.98
2023-04-15T13:41:52.153Z,21.18
2023-04-15T13:44:22.847Z,21.55
2023-04-15T13:47:05.022Z,21.00
2023-04-15T13:49:34.658Z,20.99
2023-04-15T13:52:05.640Z,20.56
2023-04-15T13:54:37.391Z,19.64
2023-04-15T13:57:07.625Z,20.03
2023-04-15T13:59:37.082Z,19.25
2023-04-15T14:02:07.387Z,18.53
2023-04-15T14:04:39.386Z,18.69
2023-04-15T14:07:08.921Z,18.34
2023-04-15T14:09:45.102Z,18.77
2023-04-15T14:12:19.120Z,19.10
2023-04-15T14:14:49.595Z,19.90
2023-04-15T14:17:19.362Z,20.39
2023-04-15T14:19:50.735Z,21.35
2023-04-15T14:22:22.838Z,22.28
2023-04-15T14:24:53.841Z,22.33
2023-04-15T14:27:23.447Z,22.47
2023-04-15T14:29:58.405Z,22.39
2023-04-15T14:32:28.126Z,22.06
2023-04-15T14:35:02.761Z,21.48
2023-04-15T14:37:57.663Z,21.11
2023-04-15T14:40:27.303Z,21.04
2023-04-15T14:42:56.890Z,21.12
2023-04-15T14:45:26.347Z,20.76
2023-04-15T14:47:56.199Z,21.06
2023-04-15T14:50:25.659Z,20.69
2023-04-15T14:52:55.135Z,20.72
2023-04-15T14:55:24.703Z,21.07
2023-04-15T14:57:54.959Z,21.70
2023-04-15T15:00:24.569Z,22.04
2023-04-15T15:02:54.103Z,22.11
2023-04-15T15:05:23.755Z,23.16
2023-04-15T15:08:01.429Z,24.16
2023-04-15T15:10:48.715Z,25.04
2023-04-15T15:13:24.217Z,26.46
2023-04-15T15:16:02.534Z,26.71
2023-04-15T15:18:40.794Z,27.14
2023-04-15T15:21:13.725Z,27.68
2023-04-15T15:27:05.346Z,29.20
2023-04-15T15:29:38.610Z,29.38
2023-04-15T15:32:09.178Z,30.34
2023-04-15T15:34:41.060Z,30.71
2023-04-15T15:37:11.883Z,31.14
2023-04-15T15:39:41.483Z,31.99
2023-04-15T15:42:11.725Z,32.60
2023-04-15T15:44:41.312Z,32.78
2023-04-15T15:47:10.740Z,32.46
2023-04-15T15:49:40.578Z,33.14
2023-04-15T15:52:10.666Z,33.12
2023-04-15T15:54:41.932Z,33.01
2023-04-15T15:57:11.615Z,33.00
2023-04-15T15:59:44.094Z,33.49
2023-04-15T16:02:14.611Z,34.43
2023-04-15T16:04:44.261Z,34.42
2023-04-15T16:07:15.718Z,34.58
2023-04-15T16:09:45.527Z,34.46
2023-04-15T16:12:14.997Z,34.78
2023-04-15T16:14:44.517Z,34.90
2023-04-15T16:17:14.248Z,35.80
2023-04-15T16:19:57.897Z,36.05
2023-04-15T16:22:38.650Z,36.72
2023-04-15T16:25:33.887Z,37.23
2023-04-15T16:28:22.687Z,37.21
2023-04-15T16:30:58.609Z,37.59
2023-04-15T16:33:29.538Z,38.17
2023-04-15T16:36:02.507Z,38.55
2023-04-15T16:38:33.868Z,37.95
2023-04-15T16:41:04.786Z,38.17
2023-04-15T16:43:34.355Z,38.17
2023-04-15T16:46:04.241Z,38.74
2023-04-15T16:48:33.820Z,39.05
2023-04-15T16:51:03.401Z,38.85
2023-04-15T16:53:32.918Z,39.33
2023-04-15T16:56:03.480Z,39.13
2023-04-15T16:58:37.971Z,39.23
2023-04-15T17:01:08.763Z,39.82
2023-04-15T17:03:39.033Z,40.58
2023-04-15T17:06:09.799Z,40.77
2023-04-15T17:08:44.046Z,40.89
2023-04-15T17:11:18.086Z,41.33
2023-04-15T17:13:49.286Z,41.70
2023-04-15T17:16:21.833Z,41.99
2023-04-15T17:18:54.090Z,42.38
2023-04-15T17:21:25.855Z,43.24
2023-04-15T17:23:55.965Z,42.94
2023-04-15T17:26:25.635Z,43.47
2023-04-15T17:28:55.223Z,43.77
2023-04-15T17:31:26.242Z,44.30
2023-04-15T17:34:07.213Z,44.85
2023-04-15T17:36:38.987Z,44.91
2023-04-15T17:39:08.884Z,45.05
2023-04-15T17:41:38.506Z,45.51
2023-04-15T17:44:08.964Z,45.47
2023-04-15T17:46:40.277Z,45.35
2023-04-15T17:49:09.863Z,45.32
2023-04-15T17:51:39.651Z,46.05
2023-04-15T17:54:12.279Z,46.13
2023-04-15T17:56:41.964Z,46.07
2023-04-15T17:59:12.147Z,46.21
2023-04-15T18:01:42.864Z,46.41
2023-04-15T18:04:12.929Z,46.82
2023-04-15T18:06:42.744Z,47.08
2023-04-15T18:09:12.862Z,46.89
2023-04-15T18:11:45.993Z,47.52
2023-04-15T18:14:26.696Z,47.69
2023-04-15T18:17:03.830Z,47.51
2023-04-15T18:19:33.334Z,47.85
2023-04-15T18:22:04.297Z,48.04
2023-04-15T18:24:34.066Z,48.09
2023-04-15T18:27:03.892Z,47.90
2023-04-15T18:29:35.499Z,48.62
2023-04-15T18:32:07.426Z,48.62
2023-04-15T18:34:37.324Z,48.29
2023-04-15T18:37:07.100Z,48.48
2023-04-15T18:39:36.793Z,49.14
2023-04-15T18:42:06.358Z,49.58
2023-04-15T18:44:37.351Z,49.45
2023-04-15T18:47:07.496Z,49.78
2023-04-15T18:49:36.986Z,51.08
2023-04-15T18:52:06.872Z,51.97
2023-04-15T18:54:37.824Z,52.21
2023-04-15T18:57:07.432Z,53.21
2023-04-15T18:59:37.446Z,53.23
2023-04-15T19:02:08.195Z,54.49
2023-04-15T19:04:39.939Z,54.91
2023-04-15T19:07:10.124Z,56.68
2023-04-15T19:09:41.273Z,57.33
2023-04-15T19:12:11.339Z,58.72
2023-04-15T19:14:41.695Z,59.95
2023-04-15T19:17:12.803Z,59.65
2023-04-15T19:19:42.678Z,60.23
2023-04-15T19:22:12.571Z,59.72
2023-04-15T19:24:42.155Z,60.29
2023-04-15T19:27:11.765Z,60.26
2023-04-15T19:29:41.449Z,60.15
2023-04-15T19:32:11.022Z,60.67
2023-04-15T19:34:42.358Z,60.27
2023-04-15T19:37:13.019Z,60.33
2023-04-15T19:39:44.360Z,60.45
2023-04-15T19:42:15.221Z,60.61
2023-04-15T19:44:44.654Z,60.58
2023-04-15T19:47:14.457Z,60.63
2023-04-15T19:49:44.118Z,61.09
2023-04-15T19:52:13.921Z,61.30
2023-04-15T19:54:43.529Z,61.68
2023-04-15T19:57:13.069Z,61.91
2023-04-15T19:59:42.552Z,62.53
2023-04-15T20:02:13.137Z,63.00
2023-04-15T20:04:43.177Z,63.02
2023-04-15T20:07:12.792Z,62.98
2023-04-15T20:09:44.379Z,63.04
2023-04-15T20:12:50.029Z,63.15
2023-04-15T20:15:03.667Z,63.22
2023-04-15T20:17:34.333Z,63.61
2023-04-15T20:20:07.974Z,64.08
2023-04-15T20:22:37.907Z,64.00
2023-04-15T20:25:10.066Z,63.91
2023-04-15T20:27:39.929Z,64.14
2023-04-15T20:30:10.198Z,63.91
2023-04-15T20:32:39.809Z,63.70
2023-04-15T20:35:09.735Z,63.88
2023-04-15T20:37:40.537Z,64.27
2023-04-15T20:40:11.550Z,64.57
2023-04-15T20:42:44.137Z,64.99
2023-04-15T20:45:15.772Z,65.12
2023-04-15T20:47:45.439Z,64.94
2023-04-15T20:50:14.965Z,65.39
2023-04-15T20:52:44.406Z,64.83
2023-04-15T20:55:13.952Z,64.79
2023-04-15T20:57:43.464Z,64.61
2023-04-15T21:00:13.236Z,64.88
2023-04-15T21:02:42.956Z,65.06
2023-04-15T21:05:12.904Z,66.02
2023-04-15T21:07:42.575Z,66.24
2023-04-15T21:10:12.031Z,66.11
2023-04-15T21:12:42.609Z,66.65
2023-04-15T21:15:12.545Z,66.65
2023-04-15T21:17:44.711Z,67.54
2023-04-15T21:20:15.801Z,67.00
2023-04-15T21:22:46.890Z,67.39
2023-04-15T21:25:16.928Z,67.24
2023-04-15T21:27:46.740Z,67.51
2023-04-15T21:30:16.311Z,67.64
2023-04-15T21:32:46.175Z,67.77
2023-04-15T21:35:16.920Z,68.00
2023-04-15T21:37:48.898Z,68.02
2023-04-15T21:40:19.595Z,68.12
2023-04-15T21:42:50.420Z,68.18
2023-04-15T21:45:21.091Z,68.44
2023-04-15T21:47:56.844Z,68.56
2023-04-15T21:50:44.111Z,68.90
2023-04-15T21:53:13.577Z,68.67
2023-04-15T21:55:43.220Z,69.18
2023-04-15T21:58:12.870Z,69.30
2023-04-15T22:00:42.580Z,69.31
2023-04-15T22:03:13.803Z,69.23
2023-04-15T22:05:47.450Z,68.75
2023-04-15T22:08:17.780Z,68.78
2023-04-15T22:10:47.906Z,68.88
2023-04-15T22:13:19.047Z,68.69
2023-04-15T22:15:48.622Z,68.82
2023-04-15T22:18:22.155Z,69.09
2023-04-15T22:20:51.716Z,69.55
2023-04-15T22:23:21.469Z,70.07
2023-04-15T22:25:54.979Z,70.01
2023-04-15T22:28:25.659Z,70.69
2023-04-15T22:30:58.247Z,70.76
2023-04-15T22:33:28.048Z,70.93
2023-04-15T22:35:57.931Z,70.79
2023-04-15T22:38:27.554Z,70.88
2023-04-15T22:40:58.159Z,71.46
2023-04-15T22:43:28.005Z,71.45
2023-04-15T22:45:57.616Z,71.53
2023-04-15T22:48:27.242Z,71.96
2023-04-15T22:50:56.896Z,71.78
2023-04-15T22:53:27.734Z,71.88
2023-04-15T22:55:57.180Z,72.14
2023-04-15T22:58:26.642Z,72.85
2023-04-15T23:00:56.245Z,73.35
2023-04-15T23:03:25.973Z,73.80
2023-04-15T23:05:57.995Z,74.10
2023-04-15T23:08:27.557Z,73.83
2023-04-15T23:10:57.092Z,73.72
2023-04-15T23:13:26.708Z,74.22
2023-04-15T23:15:56.371Z,74.55
2023-04-15T23:18:26.576Z,75.15
2023-04-15T23:20:57.692Z,75.39
2023-04-15T23:23:27.220Z,74.85
2023-04-15T23:25:56.931Z,74.88
2023-04-15T23:28:26.917Z,75.33
2023-04-15T23:31:00.469Z,75.23
2023-04-15T23:33:33.149Z,75.37
2023-04-15T23:36:02.839Z,75.74
2023-04-15T23:38:32.800Z,76.01
2023-04-15T23:41:02.364Z,75.78
2023-04-15T23:43:32.103Z,75.99
2023-04-15T23:46:03.853Z,75.83
2023-04-15T23:48:35.186Z,75.82
2023-04-15T23:51:06.083Z,76.78
2023-04-15T23:53:36.573Z,76.77
2023-04-15T23:56:06.478Z,77.48
2023-04-15T23:58:36.192Z,77.95
